createdAt,value
2023-03-10T00:02:46.732Z,39.90
2023-03-10T00:05:53.212Z,37.00
2023-03-10T00:09:00.232Z,38.10
2023-03-10T00:12:07.173Z,38.50
2023-03-10T00:15:15.436Z,36.80
2023-03-10T00:18:21.644Z,40.30
2023-03-10T00:21:30.518Z,37.80
2023-03-10T00:24:36.746Z,35.70
2023-03-10T00:27:43.066Z,39.40
2023-03-10T00:34:04.007Z,41.70
2023-03-10T00:37:10.361Z,36.80
2023-03-10T00:43:22.196Z,35.90
2023-03-10T00:49:33.462Z,54.00
2023-03-10T00:55:44.378Z,29.60
2023-03-10T00:58:54.176Z,36.20
2023-03-10T01:02:00.503Z,37.60
2023-03-10T01:08:11.721Z,12.00
2023-03-10T01:14:23.148Z,23.30
2023-03-10T01:20:35.169Z,23.20
2023-03-10T01:23:41.439Z,30.80
2023-03-10T01:26:47.617Z,14.10
2023-03-10T01:29:53.825Z,11.40
2023-03-10T01:33:00.002Z,25.20
2023-03-10T01:36:10.962Z,13.00
2023-03-10T01:39:17.306Z,8.70
2023-03-10T01:46:02.706Z,28.00
2023-03-10T01:49:13.746Z,17.20
2023-03-10T01:52:25.144Z,10.30
2023-03-10T01:55:35.829Z,11.30
2023-03-10T01:58:45.691Z,20.40
2023-03-10T02:01:53.617Z,15.20
2023-03-10T02:05:00.854Z,9.20
2023-03-10T02:08:08.192Z,8.70
2023-03-10T02:11:15.333Z,8.30
2023-03-10T02:14:21.808Z,12.80
2023-03-10T02:17:29.689Z,6.80
2023-03-10T02:20:45.249Z,5.90
2023-03-10T02:24:02.044Z,5.30
2023-03-10T02:27:15.753Z,11.90
2023-03-10T02:30:25.298Z,7.70
2023-03-10T02:33:34.675Z,5.20
2023-03-10T02:36:40.884Z,5.10
2023-03-10T02:39:47.113Z,4.50
2023-03-10T02:46:01.243Z,9.80
2023-03-10T02:49:10.837Z,5.60
2023-03-10T02:52:26.681Z,6.30
2023-03-10T02:55:32.829Z,7.40
2023-03-10T02:58:39.103Z,6.80
2023-03-10T03:04:49.957Z,5.50
2023-03-10T03:11:01.316Z,5.20
2023-03-10T03:14:07.987Z,5.80
2023-03-10T03:17:14.332Z,4.20
2023-03-10T03:23:25.710Z,7.30
2023-03-10T03:26:31.968Z,9.30
2023-03-10T03:29:38.270Z,5.00
2023-03-10T03:35:49.365Z,3.80
2023-03-10T03:42:00.271Z,6.40
2023-03-10T03:48:14.125Z,6.70
2023-03-10T03:51:20.560Z,5.10
2023-03-10T03:54:26.891Z,4.90
2023-03-10T04:00:40.047Z,5.90
2023-03-10T04:03:46.302Z,4.10
2023-03-10T04:09:57.835Z,5.60
2023-03-10T04:13:04.146Z,4.10
2023-03-10T04:19:15.881Z,4.20
2023-03-10T04:22:22.106Z,6.90
2023-03-10T04:25:28.307Z,6.10
2023-03-10T04:31:39.185Z,7.70
2023-03-10T04:37:49.900Z,8.90
2023-03-10T04:40:59.747Z,5.80
2023-03-10T04:44:06.391Z,8.10
2023-03-10T04:47:12.687Z,6.70
2023-03-10T04:50:19.492Z,6.50
2023-03-10T04:53:26.027Z,6.50
2023-03-10T04:56:32.295Z,7.60
2023-03-10T04:59:38.891Z,6.60
2023-03-10T05:02:45.438Z,9.30
2023-03-10T05:05:52.032Z,6.80
2023-03-10T05:08:58.279Z,6.10
2023-03-10T05:12:04.821Z,8.70
2023-03-10T05:15:12.957Z,6.90
2023-03-10T05:18:19.612Z,5.50
2023-03-10T05:21:25.840Z,8.70
2023-03-10T05:24:32.134Z,5.20
2023-03-10T05:30:43.868Z,6.20
2023-03-10T05:33:50.051Z,9.20
2023-03-10T05:36:56.590Z,7.90
2023-03-10T05:40:03.001Z,8.20
2023-03-10T05:43:09.169Z,8.20
2023-03-10T05:46:15.481Z,6.80
2023-03-10T05:52:26.324Z,6.50
2023-03-10T05:58:37.224Z,9.00
2023-03-10T06:01:43.601Z,10.00
2023-03-10T06:07:55.532Z,6.60
2023-03-10T06:11:01.996Z,7.80
2023-03-10T06:14:08.249Z,9.50
2023-03-10T06:17:14.467Z,7.20
2023-03-10T06:20:20.773Z,14.40
2023-03-10T06:26:32.296Z,11.40
2023-03-10T06:32:43.312Z,8.90
2023-03-10T06:35:49.716Z,10.50
2023-03-10T06:42:01.701Z,9.60
2023-03-10T06:45:09.977Z,8.60
2023-03-10T06:48:17.018Z,9.70
2023-03-10T06:51:24.235Z,10.20
2023-03-10T06:54:30.566Z,11.70
2023-03-10T06:57:36.757Z,7.90
2023-03-10T07:00:43.152Z,8.30
2023-03-10T07:03:49.608Z,5.80
2023-03-10T07:06:55.979Z,4.90
2023-03-10T07:13:06.810Z,4.80
2023-03-10T07:19:17.629Z,5.50
2023-03-10T07:22:23.876Z,7.30
2023-03-10T07:28:35.038Z,9.70
2023-03-10T07:31:41.342Z,7.60
2023-03-10T07:34:47.562Z,8.20
2023-03-10T07:41:00.291Z,10.30
2023-03-10T07:44:07.932Z,10.20
2023-03-10T07:47:14.257Z,10.60
2023-03-10T07:50:21.542Z,8.20
2023-03-10T07:53:28.467Z,7.90
2023-03-10T07:56:34.628Z,9.70
2023-03-10T08:02:45.739Z,9.50
2023-03-10T08:05:52.402Z,6.30
2023-03-10T08:08:59.043Z,6.50
2023-03-10T08:12:05.843Z,7.60
2023-03-10T08:15:14.717Z,9.00
2023-03-10T08:18:20.953Z,7.20
2023-03-10T08:24:31.650Z,9.00
2023-03-10T08:31:00.871Z,7.50
2023-03-10T08:34:09.331Z,6.40
2023-03-10T08:37:15.670Z,9.60
2023-03-10T08:40:22.327Z,7.90
2023-03-10T08:43:28.564Z,9.80
2023-03-10T08:49:44.134Z,10.30
2023-03-10T08:52:51.487Z,6.50
2023-03-10T08:59:02.232Z,8.60
2023-03-10T09:02:08.743Z,7.40
2023-03-10T09:05:15.062Z,6.20
2023-03-10T09:08:21.358Z,6.80
2023-03-10T09:11:31.620Z,6.40
2023-03-10T09:14:38.234Z,5.30
2023-03-10T09:17:44.521Z,5.50
2023-03-10T09:20:51.373Z,6.10
2023-03-10T09:23:57.656Z,6.60
2023-03-10T09:27:03.840Z,7.00
2023-03-10T09:30:11.716Z,5.80
2023-03-10T09:33:20.673Z,5.40
2023-03-10T09:36:27.016Z,5.60
2023-03-10T09:39:34.806Z,6.00
2023-03-10T09:42:45.808Z,4.80
2023-03-10T09:46:00.469Z,9.00
2023-03-10T09:49:13.694Z,5.70
2023-03-10T09:52:28.742Z,5.80
2023-03-10T09:55:47.348Z,3.90
2023-03-10T09:58:58.073Z,4.90
2023-03-10T10:02:15.967Z,3.00
2023-03-10T10:05:25.813Z,4.70
2023-03-10T10:08:39.916Z,6.90
2023-03-10T10:11:46.133Z,4.10
2023-03-10T10:14:57.692Z,4.10
2023-03-10T10:18:20.919Z,3.80
2023-03-10T10:21:42.734Z,2.80
2023-03-10T10:25:02.567Z,4.30
2023-03-10T10:28:23.177Z,3.80
2023-03-10T10:31:31.262Z,5.80
2023-03-10T10:34:38.933Z,4.60
2023-03-10T10:37:47.038Z,4.50
2023-03-10T10:41:00.180Z,3.40
2023-03-10T10:44:16.590Z,6.30
2023-03-10T10:47:29.206Z,4.50
2023-03-10T10:50:36.576Z,8.00
2023-03-10T10:53:44.147Z,5.40
2023-03-10T10:56:57.949Z,4.70
2023-03-10T11:00:25.369Z,3.90
2023-03-10T11:03:35.069Z,3.20
2023-03-10T11:06:40.914Z,6.40
2023-03-10T11:09:47.097Z,2.50
2023-03-10T11:13:08.506Z,3.80
2023-03-10T11:16:23.062Z,6.30
2023-03-10T11:19:33.518Z,3.90
2023-03-10T11:22:46.101Z,4.50
2023-03-10T11:25:58.858Z,4.10
2023-03-10T11:29:15.047Z,3.30
2023-03-10T11:32:28.356Z,5.40
2023-03-10T11:35:45.823Z,4.80
2023-03-10T11:38:55.663Z,3.10
2023-03-10T11:42:11.143Z,5.30
2023-03-10T11:45:26.277Z,6.00
2023-03-10T11:48:49.789Z,6.90
2023-03-10T11:52:01.382Z,5.80
2023-03-10T11:55:16.354Z,4.00
2023-03-10T11:58:26.440Z,5.20
2023-03-10T12:01:39.533Z,7.10
2023-03-10T12:04:52.293Z,4.70
2023-03-10T12:08:04.876Z,4.80
2023-03-10T12:11:18.494Z,4.40
2023-03-10T12:14:25.795Z,4.70
2023-03-10T12:17:32.121Z,4.30
2023-03-10T12:20:38.557Z,4.00
2023-03-10T12:23:45.352Z,5.00
2023-03-10T12:27:07.552Z,5.10
2023-03-10T12:30:44.127Z,5.90
2023-03-10T12:33:53.715Z,4.80
2023-03-10T12:37:08.642Z,4.50
2023-03-10T12:44:09.710Z,4.90
2023-03-10T12:47:24.408Z,5.20
2023-03-10T12:50:49.673Z,7.60
2023-03-10T12:54:00.048Z,5.30
2023-03-10T12:57:15.869Z,4.70
2023-03-10T13:00:31.823Z,5.90
2023-03-10T13:03:44.901Z,5.30
2023-03-10T13:06:56.920Z,7.50
2023-03-10T13:10:03.868Z,5.80
2023-03-10T13:13:17.194Z,5.30
2023-03-10T13:16:23.794Z,5.60
2023-03-10T13:19:31.452Z,4.90
2023-03-10T13:22:37.339Z,5.90
2023-03-10T13:28:59.966Z,4.70
2023-03-10T13:32:07.684Z,5.60
2023-03-10T13:35:26.053Z,5.50
2023-03-10T13:38:31.910Z,6.20
2023-03-10T13:44:47.626Z,8.10
2023-03-10T13:47:55.267Z,6.50
2023-03-10T13:51:22.074Z,5.30
2023-03-10T13:54:29.952Z,6.10
2023-03-10T13:57:38.342Z,6.40
2023-03-10T14:00:50.688Z,6.20
2023-03-10T14:03:59.901Z,7.80
2023-03-10T14:07:13.840Z,4.80
2023-03-10T14:10:23.153Z,6.80
2023-03-10T14:13:47.901Z,5.90
2023-03-10T14:16:57.362Z,6.00
2023-03-10T14:20:05.094Z,8.00
2023-03-10T14:23:28.469Z,9.00
2023-03-10T14:26:34.894Z,8.60
2023-03-10T14:29:41.554Z,7.60
2023-03-10T14:32:47.464Z,9.10
2023-03-10T14:35:53.813Z,8.80
2023-03-10T14:38:59.728Z,13.10
2023-03-10T14:42:06.309Z,13.20
2023-03-10T14:45:25.405Z,12.60
2023-03-10T14:48:35.423Z,14.80
2023-03-10T14:51:41.281Z,14.50
2023-03-10T14:54:47.753Z,12.90
2023-03-10T14:57:59.759Z,12.20
2023-03-10T15:01:06.795Z,12.30
2023-03-10T15:04:16.509Z,12.70
2023-03-10T15:07:22.288Z,12.90
2023-03-10T15:10:28.441Z,13.90
2023-03-10T15:13:35.341Z,12.90
2023-03-10T15:16:41.246Z,15.20
2023-03-10T15:19:47.116Z,10.20
2023-03-10T15:22:53.480Z,10.90
2023-03-10T15:26:02.967Z,12.40
2023-03-10T15:29:08.873Z,10.40
2023-03-10T15:32:14.643Z,11.80
2023-03-10T15:35:21.860Z,14.60
2023-03-10T15:38:27.616Z,12.50
2023-03-10T15:41:36.896Z,12.30
2023-03-10T15:44:42.670Z,12.10
2023-03-10T15:47:49.341Z,10.20
2023-03-10T15:50:55.300Z,10.70
2023-03-10T15:54:01.526Z,12.00
2023-03-10T15:57:09.739Z,11.50
2023-03-10T16:00:18.297Z,12.00
2023-03-10T16:03:24.048Z,12.30
2023-03-10T16:06:30.441Z,12.70
2023-03-10T16:09:36.283Z,24.30
2023-03-10T16:12:42.340Z,23.20
2023-03-10T16:18:53.495Z,46.50
2023-03-10T16:21:59.229Z,41.10
2023-03-10T16:25:05.521Z,25.70
2023-03-10T16:28:11.314Z,15.40
2023-03-10T16:31:19.720Z,11.40
2023-03-10T16:34:25.689Z,12.10
2023-03-10T16:37:31.959Z,12.70
2023-03-10T16:40:38.150Z,15.40
2023-03-10T16:43:44.463Z,11.00
2023-03-10T16:46:50.237Z,13.40
2023-03-10T16:49:56.409Z,10.90
2023-03-10T16:53:02.269Z,12.70
2023-03-10T16:56:09.474Z,13.00
2023-03-10T16:59:18.591Z,14.60
2023-03-10T17:02:24.533Z,15.10
2023-03-10T17:05:31.019Z,13.00
2023-03-10T17:08:37.394Z,13.90
2023-03-10T17:11:46.427Z,13.30
2023-03-10T17:14:52.204Z,14.10
2023-03-10T17:17:58.037Z,15.10
2023-03-10T17:21:13.426Z,16.70
2023-03-10T17:24:21.118Z,15.40
2023-03-10T17:27:27.381Z,16.70
2023-03-10T17:30:33.367Z,15.50
2023-03-10T17:33:39.207Z,16.30
2023-03-10T17:39:49.637Z,20.10
2023-03-10T17:46:01.119Z,16.60
2023-03-10T17:49:07.251Z,20.20
2023-03-10T17:55:17.804Z,16.40
2023-03-10T17:58:24.107Z,15.50
2023-03-10T18:01:33.662Z,12.90
2023-03-10T18:04:45.345Z,12.30
2023-03-10T18:07:53.841Z,13.90
2023-03-10T18:11:07.502Z,12.40
2023-03-10T18:14:13.473Z,12.50
2023-03-10T18:17:19.316Z,10.60
2023-03-10T18:20:25.874Z,11.80
2023-03-10T18:23:31.773Z,13.00
2023-03-10T18:26:38.247Z,12.40
2023-03-10T18:29:44.079Z,12.90
2023-03-10T18:32:50.015Z,11.60
2023-03-10T18:35:56.331Z,11.50
2023-03-10T18:39:04.090Z,15.10
2023-03-10T18:42:10.274Z,15.50
2023-03-10T18:48:20.768Z,15.60
2023-03-10T18:51:27.676Z,12.50
2023-03-10T18:54:33.445Z,12.30
2023-03-10T18:57:39.350Z,10.70
2023-03-10T19:00:45.205Z,12.00
2023-03-10T19:03:51.174Z,12.40
2023-03-10T19:06:56.961Z,12.00
2023-03-10T19:10:02.899Z,10.60
2023-03-10T19:13:09.351Z,10.90
2023-03-10T19:16:15.346Z,12.70
2023-03-10T19:19:21.375Z,10.90
2023-03-10T19:22:27.432Z,11.80
2023-03-10T19:25:33.391Z,12.70
2023-03-10T19:28:39.250Z,14.70
2023-03-10T19:31:45.149Z,13.10
2023-03-10T19:34:51.327Z,11.90
2023-03-10T19:37:57.883Z,12.00
2023-03-10T19:41:05.086Z,18.30
2023-03-10T19:44:11.397Z,13.90
2023-03-10T19:47:19.270Z,19.60
2023-03-10T19:50:25.470Z,17.70
2023-03-10T19:56:36.980Z,44.90
2023-03-10T19:59:43.276Z,36.60
2023-03-10T20:02:49.818Z,22.40
2023-03-10T20:05:56.095Z,14.40
2023-03-10T20:09:01.869Z,11.30
2023-03-10T20:12:08.513Z,9.80
2023-03-10T20:15:14.479Z,11.30
2023-03-10T20:18:21.458Z,10.00
2023-03-10T20:21:27.743Z,34.80
2023-03-10T20:24:33.565Z,12.80
2023-03-10T20:27:40.861Z,10.20
2023-03-10T20:30:48.069Z,9.50
2023-03-10T20:33:54.123Z,9.90
2023-03-10T20:37:00.204Z,23.90
2023-03-10T20:40:07.543Z,20.10
2023-03-10T20:43:13.742Z,20.00
2023-03-10T20:52:29.775Z,13.80
2023-03-10T20:55:35.622Z,15.40
2023-03-10T20:58:42.004Z,12.40
2023-03-10T21:01:47.958Z,12.70
2023-03-10T21:04:54.123Z,11.60
2023-03-10T21:11:05.303Z,10.30
2023-03-10T21:14:11.182Z,12.90
2023-03-10T21:17:17.038Z,19.70
2023-03-10T21:20:24.550Z,12.20
2023-03-10T21:23:30.499Z,12.40
2023-03-10T21:26:37.060Z,15.30
2023-03-10T21:29:43.362Z,9.70
2023-03-10T21:32:49.344Z,10.00
2023-03-10T21:35:55.189Z,25.40
2023-03-10T21:39:01.031Z,11.50
2023-03-10T21:42:07.381Z,10.20
2023-03-10T21:45:15.903Z,9.30
2023-03-10T21:48:21.963Z,15.10
2023-03-10T21:51:28.337Z,11.80
2023-03-10T21:54:34.455Z,12.30
2023-03-10T22:00:45.310Z,12.80
2023-03-10T22:03:51.460Z,12.50
2023-03-10T22:06:57.412Z,10.70
2023-03-10T22:10:03.370Z,12.50
2023-03-10T22:13:09.229Z,11.40
2023-03-10T22:16:18.606Z,10.20
2023-03-10T22:19:24.937Z,10.00
2023-03-10T22:22:30.790Z,8.00
2023-03-10T22:25:36.957Z,9.00
2023-03-10T22:28:42.918Z,8.70
2023-03-10T22:31:48.874Z,15.50
2023-03-10T22:34:54.725Z,10.80
2023-03-10T22:38:00.686Z,9.50
2023-03-10T22:41:12.995Z,9.70
2023-03-10T22:44:18.868Z,11.20
2023-03-10T22:47:24.911Z,8.50
2023-03-10T22:50:33.616Z,10.10
2023-03-10T22:53:39.876Z,9.80
2023-03-10T22:59:50.087Z,8.80
2023-03-10T23:02:55.985Z,8.80
2023-03-10T23:06:03.786Z,8.10
2023-03-10T23:09:10.892Z,10.00
2023-03-10T23:12:16.889Z,11.60
2023-03-10T23:15:25.942Z,11.70
2023-03-10T23:18:31.886Z,15.10
2023-03-10T23:21:37.775Z,15.50
2023-03-10T23:24:43.592Z,10.80
2023-03-10T23:27:49.359Z,13.30
2023-03-10T23:30:55.415Z,25.60
2023-03-10T23:34:01.269Z,14.90
2023-03-10T23:37:07.530Z,24.80
2023-03-10T23:43:20.273Z,10.10
2023-03-10T23:46:26.125Z,15.00
2023-03-10T23:49:33.413Z,9.80
2023-03-10T23:52:39.270Z,9.60
2023-03-10T23:55:46.787Z,10.40
2023-03-10T23:58:52.627Z,9.90
